Time;durP1;ratioP1;P1;durP2;ratioP2;P2;SDS_P1;SDS_P2;PMS_P1;PMS_P2;Temp;Humidity;BMP_temperature;BMP_pressure;BME280_temperature;BME280_humidity;BME280_pressure;Samples;Min_cycle;Max_cycle;Signal;HPM_P1;HPM_P2
2022/05/19 00:01:15;;;;;;;0.93;0.93;;;9.10;91.90;;;;;;5010218;28;20230;-72
2022/05/19 00:03:40;;;;;;;0.47;0.47;;;9.10;92.10;;;;;;5011949;28;20189;-73
2022/05/19 00:06:08;;;;;;;0.40;0.40;;;9.10;92.10;;;;;;5010034;28;20588;-74
2022/05/19 00:08:34;;;;;;;0.53;0.53;;;9.00;92.20;;;;;;5007253;28;20274;-73
2022/05/19 00:11:05;;;;;;;0.40;0.40;;;9.00;92.10;;;;;;5015457;28;20263;-73
2022/05/19 00:13:31;;;;;;;0.30;0.30;;;9.00;92.30;;;;;;5005064;28;20701;-72
2022/05/19 00:15:58;;;;;;;0.43;0.43;;;9.00;92.20;;;;;;5007854;28;20189;-72
2022/05/19 00:18:23;;;;;;;0.30;0.30;;;9.00;92.60;;;;;;5011201;28;20292;-72
2022/05/19 00:20:49;;;;;;;0.50;0.50;;;8.90;92.40;;;;;;5010806;28;20662;-72
2022/05/19 00:23:16;;;;;;;0.30;0.30;;;8.90;92.40;;;;;;5006239;28;20188;-72
2022/05/19 00:25:42;;;;;;;0.40;0.40;;;8.90;92.80;;;;;;5010087;28;20191;-72
2022/05/19 00:28:08;;;;;;;0.40;0.40;;;8.80;92.50;;;;;;5007122;28;20181;-72
2022/05/19 00:30:35;;;;;;;0.50;0.50;;;8.80;92.50;;;;;;5012603;28;20464;-72
2022/05/19 00:33:01;;;;;;;0.60;0.60;;;;;;;;;;5008088;28;20179;-74
2022/05/19 00:35:27;;;;;;;0.43;0.43;;;;;;;;;;5010539;28;20204;-73
2022/05/19 00:37:53;;;;;;;0.50;0.50;;;;;;;;;;5011118;28;20181;-73
2022/05/19 00:40:21;;;;;;;0.30;0.30;;;8.70;92.40;;;;;;5010220;28;20180;-73
2022/05/19 00:42:46;;;;;;;0.77;0.77;;;8.70;92.40;;;;;;5006793;28;20246;-73
2022/05/19 00:45:19;;;;;;;0.40;0.40;;;8.70;92.40;;;;;;5005372;28;20182;-73
2022/05/19 00:48:00;;;;;;;0.50;0.50;;;8.70;92.40;;;;;;5006244;28;21054;-74
2022/05/19 00:50:32;;;;;;;0.90;0.90;;;8.70;92.40;;;;;;5006898;28;20254;-73
2022/05/19 00:53:41;;;;;;;2.00;1.90;;;8.60;92.50;;;;;;5006363;28;20192;-73
2022/05/19 00:56:22;;;;;;;3.27;3.07;;;8.70;92.70;;;;;;4973450;28;20339;-72
2022/05/19 00:58:59;;;;;;;1.50;1.40;;;8.70;92.90;;;;;;4971805;28;20205;-73
2022/05/19 01:01:24;;;;;;;3.33;2.07;;;8.70;93.20;;;;;;4967391;28;20190;-73
2022/05/19 01:03:57;;;;;;;5.27;2.63;;;8.70;93.60;;;;;;4969910;28;20197;-72
2022/05/19 01:06:24;;;;;;;1.00;1.00;;;8.70;93.30;;;;;;4968804;28;20201;-73
2022/05/19 01:09:09;;;;;;;1.10;1.10;;;8.70;93.20;;;;;;4958434;28;20218;-72
2022/05/19 01:11:38;;;;;;;3.97;0.73;;;8.70;93.30;;;;;;4970774;28;20202;-72
2022/05/19 01:14:05;;;;;;;0.83;0.83;;;8.70;93.40;;;;;;4970916;28;20187;-72
2022/05/19 01:16:32;;;;;;;1.07;1.07;;;8.70;93.50;;;;;;4957132;28;20666;-71
2022/05/19 01:18:58;;;;;;;1.00;1.00;;;8.70;93.30;;;;;;4976170;28;20206;-72
2022/05/19 01:21:28;;;;;;;0.77;0.77;;;8.70;93.50;;;;;;4968930;28;20594;-72
2022/05/19 01:24:03;;;;;;;1.20;1.10;;;8.70;93.50;;;;;;4969124;28;20214;-72
2022/05/19 01:26:29;;;;;;;0.60;0.60;;;;;;;;;;4970011;28;20766;-72
2022/05/19 01:28:58;;;;;;;0.60;0.60;;;8.70;93.40;;;;;;4969190;28;20227;-72
2022/05/19 01:31:34;;;;;;;1.10;1.10;;;8.70;93.30;;;;;;4985926;28;20244;-72
2022/05/19 01:34:02;;;;;;;1.00;1.00;;;8.70;93.10;;;;;;5006184;28;20304;-72
2022/05/19 01:36:28;;;;;;;0.83;0.70;;;8.70;93.20;;;;;;5046057;28;20204;-72
2022/05/19 01:39:06;;;;;;;2.50;1.10;;;8.70;93.30;;;;;;5011943;28;20565;-72
2022/05/19 01:42:00;;;;;;;0.73;0.73;;;8.70;93.30;;;;;;5008425;28;20283;-72
2022/05/19 01:44:38;;;;;;;0.67;0.67;;;8.70;93.80;;;;;;5007540;28;20216;-72
2022/05/19 01:47:13;;;;;;;0.70;0.70;;;8.70;93.70;;;;;;5003587;28;20212;-72
2022/05/19 01:49:39;;;;;;;0.60;0.60;;;;;;;;;;5005215;28;20895;-72
2022/05/19 01:52:14;;;;;;;0.63;0.63;;;8.80;93.90;;;;;;5005223;28;20209;-71
2022/05/19 01:54:56;;;;;;;0.40;0.40;;;;;;;;;;5010114;28;20211;-72
2022/05/19 01:57:22;;;;;;;0.40;0.40;;;;;;;;;;5004586;28;20647;-72
2022/05/19 02:00:13;;;;;;;0.60;0.60;;;8.90;94.10;;;;;;5007128;28;20570;-72
2022/05/19 02:02:58;;;;;;;0.30;0.30;;;9.00;94.40;;;;;;5004470;28;20208;-72
2022/05/19 02:05:39;;;;;;;0.50;0.50;;;9.00;94.10;;;;;;5006296;28;20241;-72
2022/05/19 02:08:11;;;;;;;0.50;0.50;;;9.00;94.10;;;;;;5010073;28;20696;-72
2022/05/19 02:10:41;;;;;;;0.30;0.30;;;9.10;94.20;;;;;;5011925;28;20724;-72
2022/05/19 02:13:08;;;;;;;0.40;0.40;;;9.10;94.20;;;;;;5010110;28;20685;-72
2022/05/19 02:15:37;;;;;;;0.30;0.30;;;9.10;94.10;;;;;;5008061;28;20730;-72
2022/05/19 02:18:03;;;;;;;0.50;0.50;;;9.20;94.00;;;;;;5006819;28;20207;-72
2022/05/19 02:20:31;;;;;;;0.57;0.57;;;9.20;93.90;;;;;;5009375;28;20193;-72
2022/05/19 02:22:59;;;;;;;5.53;0.53;;;9.20;94.10;;;;;;5008520;28;20205;-73
2022/05/19 02:25:40;;;;;;;0.53;0.53;;;9.20;94.00;;;;;;5008006;28;20193;-72
2022/05/19 02:28:11;;;;;;;0.40;0.30;;;9.20;93.90;;;;;;5007595;28;20220;-72
2022/05/19 02:30:40;;;;;;;0.57;0.57;;;9.30;93.90;;;;;;5005584;28;20189;-72
2022/05/19 02:33:07;;;;;;;1.60;0.40;;;9.30;94.00;;;;;;5010014;28;20181;-72
2022/05/19 02:35:33;;;;;;;0.50;0.50;;;9.30;93.90;;;;;;5003756;28;20569;-72
2022/05/19 02:38:00;;;;;;;0.27;0.27;;;9.30;94.30;;;;;;5011101;28;20181;-72
2022/05/19 02:40:30;;;;;;;1.80;0.40;;;9.40;94.00;;;;;;5008495;28;20335;-72
2022/05/19 02:42:56;;;;;;;0.50;0.50;;;;;;;;;;5036187;28;20197;-72
2022/05/19 02:45:22;;;;;;;0.77;0.43;;;9.40;93.80;;;;;;5007102;28;20614;-72
2022/05/19 02:47:48;;;;;;;0.50;0.50;;;9.40;93.70;;;;;;5005462;28;20235;-72
2022/05/19 02:50:16;;;;;;;0.40;0.40;;;9.40;93.60;;;;;;5010199;28;20213;-72
2022/05/19 02:52:42;;;;;;;0.30;0.30;;;9.40;93.70;;;;;;5006702;28;20207;-72
2022/05/19 02:55:08;;;;;;;0.40;0.40;;;9.40;93.50;;;;;;5013544;28;20220;-72
2022/05/19 02:57:34;;;;;;;0.40;0.40;;;;;;;;;;5014986;28;20740;-72
2022/05/19 03:00:00;;;;;;;0.57;0.57;;;9.40;93.20;;;;;;5005970;28;20196;-72
2022/05/19 03:02:26;;;;;;;6.87;0.80;;;;;;;;;;5016659;28;20200;-72
2022/05/19 03:04:52;;;;;;;0.63;0.63;;;;;;;;;;5009823;28;20627;-72
2022/05/19 03:07:19;;;;;;;2.23;1.17;;;9.50;93.50;;;;;;5010590;28;20193;-72
2022/05/19 03:09:45;;;;;;;1.37;1.33;;;9.50;93.50;;;;;;5015365;28;20216;-72
2022/05/19 03:12:12;;;;;;;3.33;1.20;;;9.50;93.20;;;;;;5007814;28;20192;-72
2022/05/19 03:14:39;;;;;;;1.53;1.50;;;;;;;;;;5011434;28;20188;-71
2022/05/19 03:17:06;;;;;;;1.63;1.53;;;9.50;93.50;;;;;;5011084;28;20192;-71
2022/05/19 03:19:32;;;;;;;1.70;1.60;;;9.50;93.30;;;;;;5011246;28;20567;-72
2022/05/19 03:21:58;;;;;;;1.70;1.60;;;;;;;;;;5008451;28;20180;-72
2022/05/19 03:24:24;;;;;;;3.53;1.57;;;;;;;;;;5006513;28;20189;-72
2022/05/19 03:26:50;;;;;;;1.33;1.33;;;;;;;;;;5010454;28;20247;-73
2022/05/19 03:29:16;;;;;;;1.47;1.47;;;;;;;;;;5012144;28;20220;-72
2022/05/19 03:31:43;;;;;;;1.47;1.47;;;;;;;;;;5009402;28;20256;-72
2022/05/19 03:34:09;;;;;;;2.17;1.93;;;;;;;;;;5016478;28;20234;-72
2022/05/19 03:36:35;;;;;;;1.13;1.03;;;;;;;;;;5010581;28;20306;-72
2022/05/19 03:39:01;;;;;;;1.77;1.67;;;9.60;93.30;;;;;;5008129;28;20193;-73
2022/05/19 03:41:30;;;;;;;1.50;1.40;;;9.70;93.30;;;;;;5003384;28;20196;-74
2022/05/19 03:43:56;;;;;;;2.13;2.00;;;;;;;;;;5005419;28;20653;-72
2022/05/19 03:46:21;;;;;;;1.87;1.77;;;9.70;93.10;;;;;;5012050;28;20252;-72
2022/05/19 03:48:47;;;;;;;3.20;3.00;;;9.70;92.40;;;;;;5011958;28;20220;-71
2022/05/19 03:51:22;;;;;;;2.90;2.67;;;9.70;92.60;;;;;;5010100;28;20213;-73
2022/05/19 03:53:49;;;;;;;1.80;1.70;;;9.70;92.80;;;;;;5039438;28;20190;-73
2022/05/19 03:56:16;;;;;;;1.93;1.83;;;9.70;92.60;;;;;;5007347;28;20200;-74
2022/05/19 03:58:42;;;;;;;1.90;1.80;;;;;;;;;;5014566;28;20246;-72
2022/05/19 04:01:08;;;;;;;1.70;1.67;;;9.80;92.80;;;;;;5006593;28;20739;-72
2022/05/19 04:03:33;;;;;;;1.63;1.47;;;9.80;92.80;;;;;;5008243;28;20223;-72
2022/05/19 04:05:59;;;;;;;2.60;2.40;;;9.80;93.40;;;;;;5018500;28;20192;-72
2022/05/19 04:08:25;;;;;;;1.80;1.70;;;9.90;93.10;;;;;;5012095;28;20457;-72
2022/05/19 04:10:51;;;;;;;2.00;1.90;;;;;;;;;;5008789;28;20205;-72
2022/05/19 04:13:17;;;;;;;2.00;1.83;;;;;;;;;;5011834;28;20608;-73
2022/05/19 04:15:43;;;;;;;2.30;2.20;;;;;;;;;;5009200;28;20667;-73
2022/05/19 04:18:09;;;;;;;2.13;2.03;;;;;;;;;;5006618;28;20196;-72
2022/05/19 04:20:35;;;;;;;2.03;1.83;;;;;;;;;;5003329;28;20698;-73
2022/05/19 04:23:01;;;;;;;1.50;1.40;;;9.90;93.10;;;;;;5006769;28;20200;-73
2022/05/19 04:25:35;;;;;;;1.97;1.87;;;9.90;92.80;;;;;;5010602;28;20580;-73
2022/05/19 04:28:01;;;;;;;2.00;1.90;;;9.90;92.60;;;;;;5042779;28;20211;-73
2022/05/19 04:30:27;;;;;;;2.23;1.93;;;10.00;92.80;;;;;;5005961;28;20189;-73
2022/05/19 04:32:53;;;;;;;2.30;2.10;;;10.00;92.70;;;;;;5005631;28;20785;-74
2022/05/19 04:35:19;;;;;;;2.60;2.43;;;;;;;;;;5005031;28;20264;-74
2022/05/19 04:37:46;;;;;;;2.33;2.13;;;10.10;92.50;;;;;;5006209;28;20185;-73
2022/05/19 04:40:13;;;;;;;3.30;2.17;;;10.20;92.10;;;;;;5008255;28;20243;-73
2022/05/19 04:42:40;;;;;;;5.73;3.47;;;10.20;91.40;;;;;;5041021;28;20296;-73
2022/05/19 04:45:08;;;;;;;4.67;3.17;;;10.20;91.50;;;;;;5007952;28;20185;-73
2022/05/19 04:47:34;;;;;;;3.43;3.13;;;10.20;91.60;;;;;;5005944;28;20181;-73
2022/05/19 04:50:00;;;;;;;4.00;3.03;;;;;;;;;;5012302;28;20267;-73
2022/05/19 04:52:26;;;;;;;2.63;2.53;;;10.40;92.10;;;;;;5002060;28;20692;-74
2022/05/19 04:54:52;;;;;;;2.73;2.53;;;;;;;;;;5005561;28;20184;-74
2022/05/19 04:57:18;;;;;;;2.63;2.43;;;;;;;;;;5013547;28;20185;-73
2022/05/19 04:59:44;;;;;;;4.17;3.57;;;;;;;;;;5003850;28;20260;-73
2022/05/19 05:02:12;;;;;;;3.27;3.00;;;10.50;91.00;;;;;;5006393;28;20185;-74
2022/05/19 05:04:38;;;;;;;2.83;2.57;;;10.50;91.10;;;;;;5004204;28;20181;-76
2022/05/19 05:07:05;;;;;;;3.67;3.27;;;10.60;91.50;;;;;;5014222;28;20614;-76
2022/05/19 05:09:31;;;;;;;2.80;2.60;;;10.60;91.60;;;;;;5025200;28;20216;-74
2022/05/19 05:11:57;;;;;;;4.53;3.30;;;10.70;91.60;;;;;;5010616;28;20586;-74
2022/05/19 05:14:23;;;;;;;7.87;3.20;;;10.70;91.40;;;;;;5012051;28;20176;-74
2022/05/19 05:16:50;;;;;;;3.43;3.23;;;10.80;90.70;;;;;;5011644;28;20172;-75
2022/05/19 05:19:19;;;;;;;3.33;2.40;;;10.90;90.40;;;;;;5004035;28;20204;-74
2022/05/19 05:21:50;;;;;;;3.37;2.97;;;10.90;90.20;;;;;;5005960;28;20189;-75
2022/05/19 05:24:16;;;;;;;4.60;2.97;;;10.90;90.00;;;;;;5011312;28;20213;-75
2022/05/19 05:26:42;;;;;;;2.90;2.70;;;10.90;89.50;;;;;;5008331;28;20184;-74
2022/05/19 05:29:07;;;;;;;2.40;2.30;;;10.90;89.50;;;;;;5013835;28;20222;-75
2022/05/19 05:31:33;;;;;;;3.40;3.10;;;;;;;;;;5007814;28;20811;-74
2022/05/19 05:33:59;;;;;;;3.17;2.93;;;10.90;89.70;;;;;;5009316;28;20188;-74
2022/05/19 05:36:25;;;;;;;3.57;3.20;;;;;;;;;;5001556;28;20185;-76
2022/05/19 05:38:51;;;;;;;7.30;3.00;;;10.90;89.80;;;;;;5008071;28;20200;-74
2022/05/19 05:41:18;;;;;;;3.20;3.00;;;11.00;89.90;;;;;;5001440;28;20213;-75
2022/05/19 05:43:44;;;;;;;3.57;2.87;;;11.00;90.30;;;;;;4995308;28;20230;-76
2022/05/19 05:46:14;;;;;;;2.63;2.53;;;11.10;90.40;;;;;;5004953;28;20188;-75
2022/05/19 05:48:40;;;;;;;3.17;2.97;;;11.10;90.30;;;;;;5040227;28;20208;-75
2022/05/19 05:51:09;;;;;;;3.20;2.60;;;11.10;90.40;;;;;;5001325;28;21089;-75
2022/05/19 05:53:36;;;;;;;2.63;2.53;;;11.20;90.60;;;;;;5008456;28;20685;-74
2022/05/19 05:56:04;;;;;;;2.77;2.67;;;11.20;90.60;;;;;;5005310;28;20180;-76
2022/05/19 05:58:30;;;;;;;3.73;2.80;;;11.30;90.20;;;;;;4996935;28;21693;-75
2022/05/19 06:00:56;;;;;;;2.70;2.60;;;11.40;90.00;;;;;;5004486;28;20765;-76
2022/05/19 06:03:22;;;;;;;4.07;2.73;;;;;;;;;;5007724;28;20185;-75
2022/05/19 06:05:48;;;;;;;3.67;3.17;;;11.40;89.90;;;;;;5006725;28;20188;-76
2022/05/19 06:08:14;;;;;;;9.00;2.80;;;11.50;89.30;;;;;;5001838;28;21585;-75
2022/05/19 06:10:40;;;;;;;8.48;2.88;;;11.50;88.70;;;;;;5002496;28;20184;-73
2022/05/19 06:13:06;;;;;;;2.88;2.38;;;11.50;88.40;;;;;;5004414;28;20185;-72
2022/05/19 06:15:32;;;;;;;2.43;2.33;;;11.50;88.60;;;;;;5010261;28;20289;-73
2022/05/19 06:17:58;;;;;;;1.97;1.87;;;;;;;;;;5007854;28;20738;-74
2022/05/19 06:20:24;;;;;;;1.70;1.60;;;11.50;88.60;;;;;;5008092;28;20189;-73
2022/05/19 06:22:50;;;;;;;2.13;2.03;;;11.50;88.50;;;;;;5006060;28;20196;-78
2022/05/19 06:25:19;;;;;;;2.70;2.47;;;11.60;88.20;;;;;;5003161;28;20675;-76
2022/05/19 06:27:45;;;;;;;2.70;2.50;;;11.50;88.00;;;;;;5008374;28;20185;-75
2022/05/19 06:30:12;;;;;;;2.37;2.17;;;11.60;88.00;;;;;;5003243;28;20298;-75
2022/05/19 06:32:40;;;;;;;1.73;1.73;;;11.60;88.10;;;;;;4999911;28;20270;-75
2022/05/19 06:35:08;;;;;;;2.17;2.07;;;11.60;88.10;;;;;;5003706;28;20182;-77
2022/05/19 06:37:33;;;;;;;3.00;2.40;;;11.70;88.10;;;;;;5006881;28;20578;-75
2022/05/19 06:39:59;;;;;;;2.60;2.23;;;11.70;87.90;;;;;;5012675;28;20226;-74
2022/05/19 06:42:25;;;;;;;4.87;1.70;;;11.70;87.80;;;;;;5007487;28;20263;-75
2022/05/19 06:44:51;;;;;;;1.23;1.23;;;11.70;87.70;;;;;;5007452;28;20184;-75
2022/05/19 06:47:17;;;;;;;1.92;1.80;;;11.80;87.10;;;;;;5004247;28;20619;-76
2022/05/19 06:49:51;;;;;;;1.42;1.33;;;11.60;86.00;;;;;;4999642;28;20217;-73
2022/05/19 06:52:23;;;;;;;0.98;0.98;;;11.70;86.00;;;;;;5002769;28;20572;-73
2022/05/19 06:54:52;;;;;;;1.00;1.00;;;11.70;86.30;;;;;;4979975;28;20239;-75
2022/05/19 06:57:20;;;;;;;2.45;2.30;;;11.70;86.10;;;;;;5000071;28;20630;-74
2022/05/19 06:59:46;;;;;;;1.67;1.58;;;11.70;86.40;;;;;;5000527;28;20690;-78
2022/05/19 07:02:13;;;;;;;2.05;1.90;;;11.80;86.40;;;;;;5004819;28;20515;-75
2022/05/19 07:04:39;;;;;;;1.80;1.70;;;11.80;86.30;;;;;;5006700;28;20292;-74
2022/05/19 07:07:06;;;;;;;1.38;1.23;;;11.80;85.80;;;;;;5003660;28;20180;-75
2022/05/19 07:09:33;;;;;;;1.77;1.50;;;11.80;85.90;;;;;;5004265;28;20212;-74
2022/05/19 07:12:00;;;;;;;2.30;2.10;;;11.80;86.20;;;;;;5005326;28;20735;-73
2022/05/19 07:14:26;;;;;;;1.60;1.50;;;11.90;86.30;;;;;;5033861;28;20793;-75
2022/05/19 07:16:52;;;;;;;0.98;0.98;;;12.00;86.10;;;;;;5005545;28;20234;-75
2022/05/19 07:22:05;;;;;;;1.40;1.30;;;12.10;85.10;;;;;;5005607;28;20789;-73
2022/05/19 07:24:32;;;;;;;0.98;0.98;;;12.10;84.90;;;;;;5003019;28;20805;-74
2022/05/19 07:26:58;;;;;;;3.22;1.52;;;12.20;84.20;;;;;;5006019;28;20571;-73
2022/05/19 07:29:24;;;;;;;1.40;1.30;;;12.20;84.70;;;;;;5005341;28;21038;-73
2022/05/19 07:31:51;;;;;;;1.20;1.15;;;12.30;84.80;;;;;;5006145;28;20659;-73
2022/05/19 07:34:20;;;;;;;1.23;1.08;;;12.40;84.20;;;;;;5036077;28;20208;-74
2022/05/19 07:36:46;;;;;;;4.75;1.30;;;12.40;84.30;;;;;;5011822;28;20203;-73
2022/05/19 07:39:12;;;;;;;1.90;1.83;;;12.50;83.30;;;;;;5010130;28;21145;-74
2022/05/19 07:41:39;;;;;;;1.23;1.23;;;12.50;82.60;;;;;;5010922;28;20177;-74
2022/05/19 07:44:07;;;;;;;4.50;1.27;;;12.50;81.80;;;;;;5007262;28;20219;-74
2022/05/19 07:46:34;;;;;;;3.53;1.10;;;12.60;81.80;;;;;;5011074;28;20235;-73
2022/05/19 07:49:00;;;;;;;1.25;1.25;;;12.50;81.70;;;;;;5010864;28;20279;-73
2022/05/19 07:51:31;;;;;;;1.05;1.05;;;12.60;81.50;;;;;;5015324;28;20255;-73
2022/05/19 07:53:57;;;;;;;5.32;1.55;;;12.70;80.70;;;;;;5040509;28;20231;-74
2022/05/19 07:56:23;;;;;;;1.58;1.58;;;12.70;80.00;;;;;;5007698;28;20439;-74
2022/05/19 07:58:50;;;;;;;1.10;1.10;;;12.80;79.50;;;;;;5014890;28;20609;-75
2022/05/19 08:01:16;;;;;;;0.90;0.90;;;12.90;80.10;;;;;;5015976;28;20189;-76
2022/05/19 08:03:42;;;;;;;1.20;1.10;;;12.90;79.80;;;;;;5012548;28;20547;-75
2022/05/19 08:06:10;;;;;;;0.80;0.80;;;12.90;78.90;;;;;;5014811;28;20188;-74
2022/05/19 08:08:40;;;;;;;4.82;1.45;;;13.10;78.10;;;;;;5010571;28;20212;-74
2022/05/19 08:11:07;;;;;;;0.95;0.90;;;13.10;78.60;;;;;;5010119;28;20244;-74
2022/05/19 08:16:17;;;;;;;1.10;0.82;;;13.30;79.60;;;;;;5012380;28;20188;-76
2022/05/19 08:18:43;;;;;;;0.60;0.60;;;;;;;;;;5014711;28;20189;-78
2022/05/19 08:21:11;;;;;;;0.80;0.55;;;13.50;79.10;;;;;;5007072;28;20682;-75
2022/05/19 08:23:42;;;;;;;0.80;0.80;;;13.50;77.80;;;;;;5016517;28;20177;-74
2022/05/19 08:26:08;;;;;;;1.02;1.02;;;13.60;78.50;;;;;;5012656;28;20188;-75
2022/05/19 08:28:36;;;;;;;0.60;0.60;;;13.70;78.00;;;;;;5011398;28;20251;-75
2022/05/19 08:31:15;;;;;;;0.85;0.60;;;13.80;78.20;;;;;;5015574;28;20260;-75
2022/05/19 08:33:42;;;;;;;1.08;0.90;;;13.90;75.80;;;;;;5008907;28;20622;-75
2022/05/19 08:36:09;;;;;;;0.90;0.90;;;14.00;74.60;;;;;;5008394;28;20172;-75
2022/05/19 08:38:36;;;;;;;2.85;0.52;;;14.20;75.60;;;;;;5042116;28;20328;-74
2022/05/19 08:41:07;;;;;;;0.85;0.70;;;14.30;76.00;;;;;;5008909;28;20177;-75
2022/05/19 08:43:42;;;;;;;0.63;0.43;;;14.30;71.70;;;;;;5010482;28;20208;-74
2022/05/19 08:46:12;;;;;;;2.95;0.55;;;14.40;74.10;;;;;;5011284;28;20191;-74
2022/05/19 08:48:38;;;;;;;1.05;0.80;;;14.50;75.70;;;;;;5010018;28;20209;-74
2022/05/19 08:51:06;;;;;;;0.35;0.35;;;14.70;76.20;;;;;;5011810;28;20267;-77
2022/05/19 08:53:36;;;;;;;0.45;0.45;;;14.80;73.40;;;;;;5039836;28;20181;-73
2022/05/19 08:56:25;;;;;;;0.30;0.30;;;14.90;70.00;;;;;;5004681;28;20197;-74
2022/05/19 08:59:28;;;;;;;0.50;0.32;;;15.00;70.50;;;;;;4963342;28;20198;-73
2022/05/19 09:02:05;;;;;;;1.40;0.50;;;15.10;65.60;;;;;;4968221;28;20255;-73
2022/05/19 09:05:08;;;;;;;0.50;0.30;;;15.20;64.50;;;;;;4959830;28;20224;-73
2022/05/19 09:07:57;;;;;;;0.50;0.50;;;15.20;64.30;;;;;;4969628;28;20587;-73
2022/05/19 09:10:35;;;;;;;0.50;0.50;;;15.30;64.10;;;;;;4971635;28;20309;-73
2022/05/19 09:13:06;;;;;;;0.70;0.70;;;15.30;65.80;;;;;;4967385;28;20189;-73
2022/05/19 09:15:34;;;;;;;0.45;0.40;;;15.40;64.80;;;;;;4966044;28;20588;-72
2022/05/19 09:18:00;;;;;;;2.03;0.50;;;15.50;64.20;;;;;;4964836;28;20397;-72
2022/05/19 09:20:50;;;;;;;0.28;0.28;;;15.60;65.10;;;;;;4964585;28;20189;-74
2022/05/19 09:23:16;;;;;;;0.40;0.40;;;15.70;66.70;;;;;;4962550;28;20198;-72
2022/05/19 09:25:47;;;;;;;1.70;0.50;;;15.90;66.00;;;;;;4951292;28;20182;-76
2022/05/19 09:28:13;;;;;;;1.58;0.45;;;16.00;67.00;;;;;;4965609;28;20581;-75
2022/05/19 09:30:41;;;;;;;0.40;0.40;;;16.10;68.90;;;;;;4968056;28;20186;-76
2022/05/19 09:33:17;;;;;;;0.50;0.30;;;16.20;66.80;;;;;;4974423;28;20181;-75
2022/05/19 09:35:51;;;;;;;3.00;0.30;;;16.40;63.60;;;;;;4989263;28;20386;-75
2022/05/19 09:38:35;;;;;;;1.13;0.40;;;16.60;64.20;;;;;;5015483;28;20199;-75
2022/05/19 09:41:06;;;;;;;3.50;0.40;;;16.80;63.50;;;;;;5014028;28;20574;-75
2022/05/19 09:43:36;;;;;;;1.48;0.50;;;16.90;62.20;;;;;;5010394;28;20196;-75
2022/05/19 09:46:14;;;;;;;0.30;0.30;;;16.90;62.50;;;;;;5038531;28;20274;-75
2022/05/19 09:49:02;;;;;;;0.40;0.40;;;17.00;61.70;;;;;;5027181;28;20234;-75
2022/05/19 09:51:49;;;;;;;2.83;0.40;;;17.20;62.60;;;;;;5014047;28;20628;-76
2022/05/19 09:54:15;;;;;;;0.30;0.20;;;17.50;61.50;;;;;;5008692;28;20212;-76
2022/05/19 09:56:50;;;;;;;0.30;0.30;;;17.70;60.80;;;;;;5011328;28;20176;-76
2022/05/19 09:59:32;;;;;;;3.13;0.40;;;18.00;61.80;;;;;;5014688;28;20199;-76
2022/05/19 10:02:23;;;;;;;0.35;0.35;;;18.40;59.70;;;;;;5013023;28;20192;-76
2022/05/19 10:04:53;;;;;;;0.30;0.30;;;18.80;61.40;;;;;;4965892;28;20237;-75
2022/05/19 10:07:26;;;;;;;0.40;0.40;;;19.20;58.00;;;;;;4956409;28;20324;-76
2022/05/19 10:09:55;;;;;;;0.50;0.50;;;19.60;56.60;;;;;;4972245;28;20225;-76
2022/05/19 10:12:32;;;;;;;1.95;0.40;;;19.80;57.20;;;;;;4973324;28;20523;-75
2022/05/19 10:15:00;;;;;;;1.80;0.30;;;20.20;59.10;;;;;;4965518;28;20210;-75
2022/05/19 10:17:33;;;;;;;0.20;0.20;;;20.70;55.00;;;;;;4956233;28;20202;-76
2022/05/19 10:19:59;;;;;;;0.50;0.50;;;;;;;;;;4967941;28;20245;-76
2022/05/19 10:22:48;;;;;;;0.30;0.30;;;21.80;56.50;;;;;;4974008;28;20210;-76
2022/05/19 10:25:29;;;;;;;0.52;0.52;;;22.50;54.60;;;;;;4969838;28;20229;-75
2022/05/19 10:31:08;;;;;;;0.40;0.38;;;24.10;49.50;;;;;;4974465;28;20265;-75
2022/05/19 10:33:59;;;;;;;0.30;0.30;;;24.60;49.10;;;;;;4953315;28;20202;-75
2022/05/19 10:36:56;;;;;;;0.40;0.40;;;24.80;48.50;;;;;;4893378;29;20201;-75
2022/05/19 10:39:35;;;;;;;0.30;0.30;;;24.60;49.10;;;;;;4896540;29;20194;-74
2022/05/19 10:42:10;;;;;;;0.60;0.40;;;25.00;51.70;;;;;;4923276;28;20739;-75
2022/05/19 10:44:41;;;;;;;0.50;0.50;;;25.40;50.40;;;;;;4951101;28;20274;-76
2022/05/19 10:47:07;;;;;;;0.55;0.55;;;;;;;;;;4945151;28;20194;-75
2022/05/19 10:49:50;;;;;;;2.22;0.68;;;26.60;48.40;;;;;;4952464;28;20314;-75
2022/05/19 10:52:39;;;;;;;0.30;0.30;;;27.10;46.80;;;;;;4949185;28;20597;-74
2022/05/19 10:55:11;;;;;;;0.40;0.40;;;27.30;45.90;;;;;;4949119;28;20398;-76
2022/05/19 10:57:48;;;;;;;0.40;0.40;;;27.20;45.30;;;;;;4955631;28;20197;-76
2022/05/19 11:00:22;;;;;;;0.40;0.40;;;26.90;44.90;;;;;;4951420;28;20217;-76
2022/05/19 11:03:08;;;;;;;1.48;0.40;;;26.70;44.30;;;;;;4951481;28;20190;-76
2022/05/19 11:05:49;;;;;;;1.55;0.88;;;26.80;46.20;;;;;;4945458;28;20194;-76
2022/05/19 11:08:34;;;;;;;0.50;0.50;;;26.80;46.70;;;;;;4953093;28;20768;-76
2022/05/19 11:11:09;;;;;;;0.50;0.50;;;27.00;47.60;;;;;;4955410;28;20217;-75
2022/05/19 11:13:50;;;;;;;1.50;0.50;;;27.20;45.20;;;;;;4986351;28;20197;-76
2022/05/19 11:16:42;;;;;;;0.40;0.40;;;27.50;44.40;;;;;;5016620;28;20185;-75
2022/05/19 11:19:18;;;;;;;0.50;0.50;;;27.70;45.70;;;;;;5015159;28;20200;-75
2022/05/19 11:22:22;;;;;;;0.50;0.50;;;27.80;44.00;;;;;;5015305;28;20569;-75
2022/05/19 11:27:49;;;;;;;1.00;0.50;;;28.80;45.70;;;;;;5017311;28;20278;-76
2022/05/19 11:30:20;;;;;;;2.85;0.50;;;29.30;44.90;;;;;;5011603;28;20365;-76
2022/05/19 11:32:52;;;;;;;3.30;0.55;;;29.90;45.50;;;;;;5013367;28;20189;-76
2022/05/19 11:35:40;;;;;;;0.52;0.52;;;30.00;44.00;;;;;;5017741;28;20561;-75
2022/05/19 11:38:07;;;;;;;0.52;0.52;;;;;;;;;;5015954;28;20275;-76
2022/05/19 11:40:46;;;;;;;0.40;0.40;;;30.40;42.90;;;;;;5005240;28;20601;-76
2022/05/19 11:43:36;;;;;;;0.50;0.50;;;30.50;43.10;;;;;;5013671;28;20188;-76
2022/05/19 11:46:10;;;;;;;0.63;0.57;;;30.40;40.10;;;;;;5008505;28;20188;-76
2022/05/19 11:55:12;;;;;;;1.10;1.10;;;30.00;44.30;;;;;;5012200;28;20731;-76
2022/05/19 11:57:56;;;;;;;0.47;0.47;;;30.20;41.50;;;;;;5012558;28;20189;-76
2022/05/19 12:00:46;;;;;;;2.75;0.40;;;30.50;43.00;;;;;;5045781;28;20193;-76
2022/05/19 12:03:34;;;;;;;0.57;0.57;;;31.00;44.60;;;;;;5009015;28;20242;-76
2022/05/19 12:06:17;;;;;;;0.60;0.60;;;31.20;42.70;;;;;;4960989;28;20220;-76
2022/05/19 12:09:00;;;;;;;0.45;0.45;;;31.60;41.70;;;;;;4960823;28;20214;-76
2022/05/19 12:11:44;;;;;;;0.60;0.60;;;31.80;45.40;;;;;;4961503;28;20209;-76
2022/05/19 12:14:30;;;;;;;0.60;0.60;;;32.30;42.10;;;;;;4959769;28;20281;-76
2022/05/19 12:17:03;;;;;;;0.75;0.60;;;32.50;41.00;;;;;;4961279;28;20222;-76
2022/05/19 12:19:48;;;;;;;0.55;0.55;;;32.60;40.90;;;;;;4945292;28;20196;-76
2022/05/19 12:22:36;;;;;;;0.85;0.50;;;32.70;41.20;;;;;;4959252;28;20198;-76
2022/05/19 12:25:07;;;;;;;0.70;0.70;;;;;;;;;;4944256;28;20186;-75
2022/05/19 12:27:38;;;;;;;0.45;0.45;;;33.30;43.20;;;;;;4944075;28;20661;-75
2022/05/19 12:33:11;;;;;;;6.78;0.70;;;33.90;41.50;;;;;;4960433;28;20248;-75
2022/05/19 12:35:43;;;;;;;2.22;0.70;;;34.20;39.40;;;;;;4958209;28;20207;-75
2022/05/19 12:38:36;;;;;;;0.50;0.50;;;34.40;36.80;;;;;;4942794;28;20190;-75
2022/05/19 12:41:23;;;;;;;0.50;0.50;;;33.80;38.00;;;;;;4957941;28;20241;-75
2022/05/19 12:43:51;;;;;;;0.93;0.65;;;33.70;38.40;;;;;;4998916;28;20191;-74
2022/05/19 12:46:38;;;;;;;0.40;0.40;;;33.90;38.90;;;;;;5043632;28;20191;-73
2022/05/19 12:49:29;;;;;;;0.40;0.40;;;34.40;37.70;;;;;;5006813;28;20216;-74
2022/05/19 12:52:09;;;;;;;2.50;0.40;;;34.60;37.40;;;;;;5043069;28;20188;-73
2022/05/19 12:54:49;;;;;;;0.50;0.50;;;34.90;36.30;;;;;;5011476;28;20281;-73
2022/05/19 12:57:15;;;;;;;0.82;0.50;;;;;;;;;;5008805;28;20207;-74
2022/05/19 13:00:03;;;;;;;0.40;0.40;;;35.10;37.10;;;;;;5013503;28;20598;-74
2022/05/19 13:02:33;;;;;;;0.30;0.30;;;35.40;35.80;;;;;;5004594;28;20211;-73
2022/05/19 13:05:18;;;;;;;0.50;0.50;;;35.70;36.90;;;;;;5003363;28;20192;-73
2022/05/19 13:07:50;;;;;;;0.40;0.40;;;35.90;37.20;;;;;;5010633;28;20192;-73
2022/05/19 13:10:16;;;;;;;0.70;0.70;;;;;;;;;;5010641;28;20212;-73
2022/05/19 13:13:13;;;;;;;7.13;0.50;;;36.20;37.70;;;;;;5008731;28;20180;-73
2022/05/19 13:16:07;;;;;;;0.35;0.35;;;36.20;35.20;;;;;;5006579;28;20218;-73
2022/05/19 13:18:36;;;;;;;0.40;0.40;;;36.10;34.60;;;;;;5001229;28;20250;-73
2022/05/19 13:21:22;;;;;;;1.85;0.35;;;36.10;35.40;;;;;;5003338;28;20317;-73
2022/05/19 13:23:49;;;;;;;0.57;0.57;;;36.00;38.40;;;;;;5011620;28;20211;-72
2022/05/19 13:26:23;;;;;;;0.43;0.43;;;35.80;36.10;;;;;;5006013;28;20198;-72
2022/05/19 13:32:04;;;;;;;0.30;0.30;;;35.80;35.20;;;;;;5003161;28;20203;-73
2022/05/19 13:34:39;;;;;;;0.25;0.25;;;35.80;33.30;;;;;;5003142;28;20278;-72
2022/05/19 13:37:06;;;;;;;0.50;0.45;;;;;;;;;;5001355;28;20211;-72
2022/05/19 13:39:33;;;;;;;0.50;0.50;;;35.90;33.30;;;;;;5003000;28;20215;-72
2022/05/19 13:42:12;;;;;;;0.47;0.40;;;36.10;32.10;;;;;;5010903;28;20682;-73
2022/05/19 13:44:38;;;;;;;0.45;0.45;;;;;;;;;;5002282;28;20555;-73
2022/05/19 13:47:11;;;;;;;0.80;0.80;;;36.10;33.30;;;;;;5005422;28;20191;-72
2022/05/19 13:49:37;;;;;;;0.60;0.60;;;36.20;33.50;;;;;;4993524;28;20204;-74